Baker, MT

7:14 PM MDT on September 20, 2014 (GMT -0600)
Baker Municipal | Change Station
CLOSE
Current Station
Airport
Location: Baker,
Elevation: 2972 ft
Nearby Weather Stations

Elev 2972 ft 46.35 °N, 104.26 °W | Updated 23 minutes ago

Clear
Clear
64 °F
Feels Like 64 °F
N
12
Wind Variable Wind from NW

Today
High -- | Low -- °F
--% Chance of Precip.
Yesterday
High -- | Low -- °F
Precip. -- in
6:41 AM 6:58 PM
Waning Crescent, 9% visible
Pressure 30.18 in
Visibility 10.0 miles
Clouds Clear
Dew Point 35 °F
Humidity 34%
Rainfall 0.00 in
Snow Depth 0 in , 0 in , 0 in
UV 0 out of 12
Pollen 4.50 out of 12
Air Quality Not available.
Flu Activity Not available.
METAR KBHK 210051Z AUTO 31010KT 10SM CLR 18/02 A3020 RMK AO2 SLP218 T01780017

More Conditions Fewer Conditions

Pressure 30.18 in
Visibility 10.0 miles
Clouds Clear
Dew Point 35 °F
Humidity 34%
Rainfall 0.00 in
Snow Depth 0 in , 0 in , 0 in
UV 0 out of 12
Pollen 4.50 out of 12
Air Quality Not available.
Flu Activity Not available.
METAR KBHK 210051Z AUTO 31010KT 10SM CLR 18/02 A3020 RMK AO2 SLP218 T01780017

More Conditions Fewer Conditions

10-Day Weather Forecast

Almanac

Astronomy

Sep. 20, 2014 Rise Set
Actual Time 6:41 AM MDT 6:58 PM MDT
Civil Twilight 6:11 AM MDT 7:28 PM MDT
Nautical Twilight 5:35 AM MDT 8:03 PM MDT
Astronomical Twilight 4:59 AM MDT 8:40 PM MDT
Moon 3:13 AM MDT (9/20) 5:10 PM MDT (9/20)
Length of Visible Light 13h 17m
Length of Day
12h 17m
Tomorrow will be 3m 16s shorter.
Waning Crescent, 9% of the Moon is Illuminated
Today
Waning Crescent
Sep 24
New
Oct 1
First Quarter
Oct 8
Full
Oct 15
Last Quarter

Today's Extremes

State Highs State Lows

Community

WunderPhotos

Upload Photos

1,755,021 photos uploaded!

WunderBlogs® & News

Nearby

Snow Depth

Station Depth Elevation
Sleeping Woman 0 in 6150 ft
Emery Creek 0 in 4350 ft
Black Pine 0 in 7210 ft
Garver Creek 0 in 4250 ft
Brackett Creek 0 in 7320 ft

Earthquake Activity

City Distance Mag. Time & Date
No recent earthquake activity has been reported nearby.
Minimum magnitude displayed is 2.5.

Coastal Water Temperatures

Place Temperature
No Stations Reporting

Nearby Weather Stations